sensor_id;sensor_type;location;lat;lon;timestamp;P1;durP1;ratioP1;P2;durP2;ratioP2
4577;SDS011;2301;47.354;8.528;2022-12-11T00:40:02;23.52;;;14.00;;
4577;SDS011;2301;47.354;8.528;2022-12-11T00:43:18;22.95;;;13.60;;
4577;SDS011;2301;47.354;8.528;2022-12-11T00:48:29;21.75;;;13.50;;
4577;SDS011;2301;47.354;8.528;2022-12-11T00:50:43;22.58;;;14.23;;
4577;SDS011;2301;47.354;8.528;2022-12-11T01:00:51;20.35;;;12.80;;
4577;SDS011;2301;47.354;8.528;2022-12-11T01:03:37;24.38;;;13.68;;
4577;SDS011;2301;47.354;8.528;2022-12-11T01:10:27;23.70;;;13.38;;
4577;SDS011;2301;47.354;8.528;2022-12-11T01:13:19;22.20;;;13.40;;
4577;SDS011;2301;47.354;8.528;2022-12-11T01:38:17;20.73;;;13.35;;
4577;SDS011;2301;47.354;8.528;2022-12-11T01:41:24;21.45;;;12.50;;
4577;SDS011;2301;47.354;8.528;2022-12-11T01:47:34;20.73;;;12.60;;
4577;SDS011;2301;47.354;8.528;2022-12-11T01:58:13;19.50;;;12.98;;
4577;SDS011;2301;47.354;8.528;2022-12-11T02:57:49;20.08;;;12.75;;
4577;SDS011;2301;47.354;8.528;2022-12-11T03:00:51;23.50;;;13.07;;
4577;SDS011;2301;47.354;8.528;2022-12-11T03:03:37;22.38;;;12.80;;
4577;SDS011;2301;47.354;8.528;2022-12-11T03:16:32;23.65;;;12.95;;
4577;SDS011;2301;47.354;8.528;2022-12-11T03:19:11;22.40;;;13.63;;
4577;SDS011;2301;47.354;8.528;2022-12-11T03:25:48;22.17;;;14.05;;
4577;SDS011;2301;47.354;8.528;2022-12-11T03:28:57;21.92;;;13.95;;
4577;SDS011;2301;47.354;8.528;2022-12-11T03:35:08;25.23;;;15.15;;
4577;SDS011;2301;47.354;8.528;2022-12-11T03:38:22;24.60;;;13.65;;
4577;SDS011;2301;47.354;8.528;2022-12-11T03:41:38;23.90;;;14.15;;
4577;SDS011;2301;47.354;8.528;2022-12-11T03:44:55;22.88;;;13.93;;
4577;SDS011;2301;47.354;8.528;2022-12-11T04:07:53;20.38;;;13.35;;
4577;SDS011;2301;47.354;8.528;2022-12-11T04:16:52;23.27;;;13.73;;
4577;SDS011;2301;47.354;8.528;2022-12-11T04:19:21;24.58;;;15.73;;
4577;SDS011;2301;47.354;8.528;2022-12-11T04:22:11;21.05;;;13.20;;
4577;SDS011;2301;47.354;8.528;2022-12-11T04:25:29;23.08;;;14.73;;
4577;SDS011;2301;47.354;8.528;2022-12-11T04:28:20;24.38;;;14.40;;
4577;SDS011;2301;47.354;8.528;2022-12-11T04:37:53;22.77;;;14.27;;
4577;SDS011;2301;47.354;8.528;2022-12-11T04:40:23;21.70;;;13.65;;
4577;SDS011;2301;47.354;8.528;2022-12-11T04:42:52;24.15;;;13.05;;
4577;SDS011;2301;47.354;8.528;2022-12-11T04:45:19;24.77;;;15.00;;
4577;SDS011;2301;47.354;8.528;2022-12-11T04:47:49;22.33;;;13.85;;
4577;SDS011;2301;47.354;8.528;2022-12-11T04:50:26;21.98;;;14.50;;
4577;SDS011;2301;47.354;8.528;2022-12-11T04:53:24;22.10;;;13.25;;
4577;SDS011;2301;47.354;8.528;2022-12-11T04:56:19;22.10;;;13.23;;
4577;SDS011;2301;47.354;8.528;2022-12-11T04:59:07;23.38;;;13.75;;
4577;SDS011;2301;47.354;8.528;2022-12-11T05:01:34;20.13;;;13.30;;
4577;SDS011;2301;47.354;8.528;2022-12-11T05:04:30;22.35;;;12.75;;
4577;SDS011;2301;47.354;8.528;2022-12-11T05:07:31;20.92;;;12.52;;
4577;SDS011;2301;47.354;8.528;2022-12-11T05:13:28;20.55;;;12.52;;
4577;SDS011;2301;47.354;8.528;2022-12-11T05:15:55;24.17;;;14.40;;
4577;SDS011;2301;47.354;8.528;2022-12-11T05:21:07;21.88;;;13.73;;
4577;SDS011;2301;47.354;8.528;2022-12-11T05:23:41;21.60;;;13.60;;
4577;SDS011;2301;47.354;8.528;2022-12-11T05:26:13;21.55;;;14.35;;
4577;SDS011;2301;47.354;8.528;2022-12-11T05:28:52;24.45;;;13.65;;
4577;SDS011;2301;47.354;8.528;2022-12-11T05:31:20;24.55;;;15.27;;
4577;SDS011;2301;47.354;8.528;2022-12-11T05:33:49;23.25;;;14.13;;
4577;SDS011;2301;47.354;8.528;2022-12-11T05:36:21;24.50;;;14.93;;
4577;SDS011;2301;47.354;8.528;2022-12-11T05:38:53;23.40;;;14.63;;
4577;SDS011;2301;47.354;8.528;2022-12-11T05:41:23;24.48;;;14.02;;
4577;SDS011;2301;47.354;8.528;2022-12-11T05:43:51;24.77;;;13.55;;
4577;SDS011;2301;47.354;8.528;2022-12-11T05:46:19;25.40;;;14.10;;
4577;SDS011;2301;47.354;8.528;2022-12-11T05:48:55;22.73;;;13.48;;
4577;SDS011;2301;47.354;8.528;2022-12-11T05:51:24;21.98;;;12.50;;
4577;SDS011;2301;47.354;8.528;2022-12-11T05:53:59;24.67;;;13.73;;
4577;SDS011;2301;47.354;8.528;2022-12-11T05:56:52;24.42;;;13.25;;
4577;SDS011;2301;47.354;8.528;2022-12-11T05:59:22;19.80;;;14.30;;
4577;SDS011;2301;47.354;8.528;2022-12-11T06:01:54;23.27;;;14.38;;
4577;SDS011;2301;47.354;8.528;2022-12-11T06:04:27;20.45;;;13.02;;
4577;SDS011;2301;47.354;8.528;2022-12-11T06:06:55;21.58;;;13.25;;
4577;SDS011;2301;47.354;8.528;2022-12-11T06:09:22;22.10;;;14.35;;
4577;SDS011;2301;47.354;8.528;2022-12-11T06:11:50;20.73;;;13.32;;
4577;SDS011;2301;47.354;8.528;2022-12-11T06:14:18;19.33;;;12.57;;
4577;SDS011;2301;47.354;8.528;2022-12-11T06:16:50;22.52;;;13.65;;
4577;SDS011;2301;47.354;8.528;2022-12-11T06:19:17;18.95;;;12.60;;
4577;SDS011;2301;47.354;8.528;2022-12-11T06:21:47;19.83;;;12.45;;
4577;SDS011;2301;47.354;8.528;2022-12-11T06:24:14;20.92;;;13.30;;
4577;SDS011;2301;47.354;8.528;2022-12-11T06:26:46;20.52;;;12.45;;
4577;SDS011;2301;47.354;8.528;2022-12-11T06:29:25;21.70;;;13.38;;
4577;SDS011;2301;47.354;8.528;2022-12-11T06:31:57;22.95;;;15.02;;
4577;SDS011;2301;47.354;8.528;2022-12-11T06:34:25;20.02;;;13.20;;
4577;SDS011;2301;47.354;8.528;2022-12-11T06:36:52;22.55;;;13.00;;
4577;SDS011;2301;47.354;8.528;2022-12-11T06:39:18;22.00;;;13.88;;
4577;SDS011;2301;47.354;8.528;2022-12-11T06:41:45;23.27;;;13.30;;
4577;SDS011;2301;47.354;8.528;2022-12-11T06:44:12;22.35;;;14.50;;
4577;SDS011;2301;47.354;8.528;2022-12-11T06:46:41;22.80;;;14.25;;
4577;SDS011;2301;47.354;8.528;2022-12-11T06:49:11;21.70;;;12.77;;
4577;SDS011;2301;47.354;8.528;2022-12-11T06:52:02;24.45;;;14.35;;
4577;SDS011;2301;47.354;8.528;2022-12-11T06:54:33;22.30;;;13.52;;
4577;SDS011;2301;47.354;8.528;2022-12-11T06:57:00;21.95;;;13.27;;
4577;SDS011;2301;47.354;8.528;2022-12-11T06:59:27;17.73;;;11.68;;
4577;SDS011;2301;47.354;8.528;2022-12-11T07:01:56;21.13;;;12.40;;
4577;SDS011;2301;47.354;8.528;2022-12-11T07:04:23;20.75;;;12.80;;
4577;SDS011;2301;47.354;8.528;2022-12-11T07:06:51;16.98;;;11.02;;
4577;SDS011;2301;47.354;8.528;2022-12-11T07:09:18;18.15;;;11.80;;
4577;SDS011;2301;47.354;8.528;2022-12-11T07:11:48;16.65;;;10.93;;
4577;SDS011;2301;47.354;8.528;2022-12-11T07:14:15;19.42;;;11.60;;
4577;SDS011;2301;47.354;8.528;2022-12-11T07:16:42;22.02;;;13.15;;
4577;SDS011;2301;47.354;8.528;2022-12-11T07:19:10;17.23;;;10.45;;
4577;SDS011;2301;47.354;8.528;2022-12-11T07:21:37;21.92;;;12.98;;
4577;SDS011;2301;47.354;8.528;2022-12-11T07:24:05;18.33;;;11.75;;
4577;SDS011;2301;47.354;8.528;2022-12-11T07:26:33;21.90;;;12.95;;
4577;SDS011;2301;47.354;8.528;2022-12-11T07:29:03;21.58;;;12.73;;
4577;SDS011;2301;47.354;8.528;2022-12-11T07:31:30;21.05;;;12.55;;
4577;SDS011;2301;47.354;8.528;2022-12-11T07:33:58;22.50;;;13.50;;
4577;SDS011;2301;47.354;8.528;2022-12-11T07:36:28;22.77;;;13.57;;
4577;SDS011;2301;47.354;8.528;2022-12-11T07:38:58;22.95;;;13.40;;
4577;SDS011;2301;47.354;8.528;2022-12-11T07:41:31;20.85;;;12.93;;
4577;SDS011;2301;47.354;8.528;2022-12-11T07:44:01;22.00;;;12.82;;
4577;SDS011;2301;47.354;8.528;2022-12-11T07:46:30;19.88;;;12.73;;
4577;SDS011;2301;47.354;8.528;2022-12-11T07:49:00;20.83;;;13.38;;
4577;SDS011;2301;47.354;8.528;2022-12-11T07:51:32;24.00;;;14.52;;
4577;SDS011;2301;47.354;8.528;2022-12-11T07:54:01;21.08;;;13.43;;
4577;SDS011;2301;47.354;8.528;2022-12-11T07:56:30;23.33;;;13.68;;
4577;SDS011;2301;47.354;8.528;2022-12-11T07:58:58;20.33;;;12.25;;
4577;SDS011;2301;47.354;8.528;2022-12-11T08:01:26;20.75;;;13.15;;
4577;SDS011;2301;47.354;8.528;2022-12-11T08:03:55;21.13;;;12.70;;
4577;SDS011;2301;47.354;8.528;2022-12-11T08:06:23;19.20;;;12.10;;
4577;SDS011;2301;47.354;8.528;2022-12-11T08:08:54;19.33;;;11.90;;
4577;SDS011;2301;47.354;8.528;2022-12-11T08:11:21;21.13;;;12.30;;
4577;SDS011;2301;47.354;8.528;2022-12-11T08:13:48;20.17;;;12.27;;
4577;SDS011;2301;47.354;8.528;2022-12-11T08:16:15;20.42;;;12.82;;
4577;SDS011;2301;47.354;8.528;2022-12-11T08:18:44;22.80;;;13.25;;
4577;SDS011;2301;47.354;8.528;2022-12-11T08:21:16;19.63;;;12.55;;
4577;SDS011;2301;47.354;8.528;2022-12-11T08:23:48;24.27;;;14.32;;
4577;SDS011;2301;47.354;8.528;2022-12-11T08:26:17;37.63;;;13.73;;
4577;SDS011;2301;47.354;8.528;2022-12-11T08:28:46;20.73;;;12.20;;
4577;SDS011;2301;47.354;8.528;2022-12-11T08:31:14;20.80;;;12.25;;
4577;SDS011;2301;47.354;8.528;2022-12-11T08:33:42;20.95;;;12.00;;
4577;SDS011;2301;47.354;8.528;2022-12-11T08:36:12;16.38;;;11.00;;
4577;SDS011;2301;47.354;8.528;2022-12-11T08:38:40;20.48;;;12.25;;
4577;SDS011;2301;47.354;8.528;2022-12-11T08:41:08;22.27;;;12.38;;
4577;SDS011;2301;47.354;8.528;2022-12-11T08:43:49;20.20;;;12.18;;
4577;SDS011;2301;47.354;8.528;2022-12-11T08:46:19;18.23;;;12.25;;
4577;SDS011;2301;47.354;8.528;2022-12-11T08:48:47;20.73;;;13.07;;
4577;SDS011;2301;47.354;8.528;2022-12-11T08:51:15;22.13;;;12.95;;
4577;SDS011;2301;47.354;8.528;2022-12-11T08:53:46;19.55;;;12.27;;
4577;SDS011;2301;47.354;8.528;2022-12-11T08:56:15;20.27;;;12.65;;
4577;SDS011;2301;47.354;8.528;2022-12-11T08:58:43;22.20;;;13.50;;
4577;SDS011;2301;47.354;8.528;2022-12-11T09:01:13;21.60;;;12.75;;
4577;SDS011;2301;47.354;8.528;2022-12-11T09:03:42;19.30;;;11.93;;
4577;SDS011;2301;47.354;8.528;2022-12-11T09:06:10;18.65;;;11.75;;
4577;SDS011;2301;47.354;8.528;2022-12-11T09:08:39;19.80;;;12.02;;
4577;SDS011;2301;47.354;8.528;2022-12-11T09:11:21;22.02;;;11.90;;
4577;SDS011;2301;47.354;8.528;2022-12-11T09:13:51;24.45;;;13.02;;
4577;SDS011;2301;47.354;8.528;2022-12-11T09:16:20;23.23;;;12.40;;
4577;SDS011;2301;47.354;8.528;2022-12-11T09:18:51;20.15;;;12.13;;
4577;SDS011;2301;47.354;8.528;2022-12-11T09:21:24;19.42;;;11.57;;
4577;SDS011;2301;47.354;8.528;2022-12-11T09:23:54;20.67;;;12.60;;
4577;SDS011;2301;47.354;8.528;2022-12-11T09:26:22;18.95;;;12.50;;
4577;SDS011;2301;47.354;8.528;2022-12-11T09:28:50;21.65;;;11.80;;
4577;SDS011;2301;47.354;8.528;2022-12-11T09:31:18;21.75;;;12.82;;
4577;SDS011;2301;47.354;8.528;2022-12-11T09:33:49;21.45;;;11.93;;
4577;SDS011;2301;47.354;8.528;2022-12-11T09:36:17;23.88;;;13.20;;
4577;SDS011;2301;47.354;8.528;2022-12-11T09:38:49;21.77;;;13.10;;
4577;SDS011;2301;47.354;8.528;2022-12-11T09:41:34;21.50;;;12.40;;
4577;SDS011;2301;47.354;8.528;2022-12-11T09:44:18;20.45;;;12.38;;
4577;SDS011;2301;47.354;8.528;2022-12-11T09:47:09;21.60;;;13.05;;
4577;SDS011;2301;47.354;8.528;2022-12-11T09:56:53;18.67;;;12.48;;
4577;SDS011;2301;47.354;8.528;2022-12-11T10:03:29;20.42;;;12.10;;
4577;SDS011;2301;47.354;8.528;2022-12-11T10:09:55;20.10;;;12.50;;
4577;SDS011;2301;47.354;8.528;2022-12-11T10:32:52;17.45;;;11.85;;
4577;SDS011;2301;47.354;8.528;2022-12-11T10:39:27;21.35;;;13.57;;
4577;SDS011;2301;47.354;8.528;2022-12-11T10:49:50;17.15;;;11.40;;
4577;SDS011;2301;47.354;8.528;2022-12-11T10:52:48;20.23;;;12.73;;
4577;SDS011;2301;47.354;8.528;2022-12-11T10:55:26;19.80;;;12.20;;
4577;SDS011;2301;47.354;8.528;2022-12-11T10:57:57;18.63;;;12.25;;
4577;SDS011;2301;47.354;8.528;2022-12-11T11:00:30;20.23;;;12.57;;
4577;SDS011;2301;47.354;8.528;2022-12-11T11:03:01;19.70;;;12.95;;
4577;SDS011;2301;47.354;8.528;2022-12-11T11:05:31;20.20;;;12.65;;
4577;SDS011;2301;47.354;8.528;2022-12-11T11:08:10;19.92;;;12.38;;
4577;SDS011;2301;47.354;8.528;2022-12-11T11:10:49;18.92;;;12.13;;
4577;SDS011;2301;47.354;8.528;2022-12-11T11:13:21;20.40;;;14.07;;
4577;SDS011;2301;47.354;8.528;2022-12-11T11:15:50;22.23;;;13.00;;
4577;SDS011;2301;47.354;8.528;2022-12-11T11:18:25;19.00;;;13.02;;
4577;SDS011;2301;47.354;8.528;2022-12-11T11:20:55;21.25;;;12.70;;
4577;SDS011;2301;47.354;8.528;2022-12-11T11:23:22;19.95;;;12.93;;
4577;SDS011;2301;47.354;8.528;2022-12-11T11:25:51;23.10;;;13.05;;
4577;SDS011;2301;47.354;8.528;2022-12-11T11:28:33;21.42;;;14.20;;
4577;SDS011;2301;47.354;8.528;2022-12-11T11:31:02;21.42;;;13.45;;
4577;SDS011;2301;47.354;8.528;2022-12-11T11:33:32;23.42;;;13.32;;
4577;SDS011;2301;47.354;8.528;2022-12-11T11:36:03;20.05;;;12.75;;
4577;SDS011;2301;47.354;8.528;2022-12-11T11:38:45;19.73;;;13.02;;
4577;SDS011;2301;47.354;8.528;2022-12-11T11:41:23;22.85;;;13.32;;
4577;SDS011;2301;47.354;8.528;2022-12-11T11:43:54;21.35;;;13.52;;
4577;SDS011;2301;47.354;8.528;2022-12-11T11:46:28;19.83;;;13.60;;
4577;SDS011;2301;47.354;8.528;2022-12-11T11:49:06;22.40;;;14.88;;
4577;SDS011;2301;47.354;8.528;2022-12-11T11:51:46;22.13;;;14.32;;
4577;SDS011;2301;47.354;8.528;2022-12-11T11:54:21;23.50;;;14.45;;
4577;SDS011;2301;47.354;8.528;2022-12-11T11:56:56;23.60;;;13.38;;
4577;SDS011;2301;47.354;8.528;2022-12-11T11:59:31;20.42;;;12.93;;
4577;SDS011;2301;47.354;8.528;2022-12-11T12:02:01;22.15;;;13.85;;
4577;SDS011;2301;47.354;8.528;2022-12-11T12:04:38;21.02;;;13.90;;
4577;SDS011;2301;47.354;8.528;2022-12-11T12:07:12;17.90;;;11.38;;
4577;SDS011;2301;47.354;8.528;2022-12-11T12:09:57;20.10;;;12.90;;
4577;SDS011;2301;47.354;8.528;2022-12-11T12:12:36;21.20;;;12.85;;
4577;SDS011;2301;47.354;8.528;2022-12-11T12:15:18;21.10;;;13.43;;
4577;SDS011;2301;47.354;8.528;2022-12-11T12:17:54;18.30;;;12.63;;
4577;SDS011;2301;47.354;8.528;2022-12-11T12:20:29;22.50;;;14.40;;
4577;SDS011;2301;47.354;8.528;2022-12-11T12:23:11;19.80;;;13.05;;
4577;SDS011;2301;47.354;8.528;2022-12-11T12:26:00;22.50;;;14.27;;
4577;SDS011;2301;47.354;8.528;2022-12-11T12:28:36;19.13;;;12.85;;
4577;SDS011;2301;47.354;8.528;2022-12-11T12:31:13;16.67;;;11.13;;
4577;SDS011;2301;47.354;8.528;2022-12-11T12:33:52;22.70;;;15.68;;
4577;SDS011;2301;47.354;8.528;2022-12-11T12:36:30;20.02;;;13.85;;
4577;SDS011;2301;47.354;8.528;2022-12-11T12:39:10;20.75;;;13.88;;
4577;SDS011;2301;47.354;8.528;2022-12-11T12:41:50;19.90;;;13.65;;
4577;SDS011;2301;47.354;8.528;2022-12-11T12:44:25;22.77;;;13.85;;
4577;SDS011;2301;47.354;8.528;2022-12-11T12:47:04;19.00;;;13.05;;
4577;SDS011;2301;47.354;8.528;2022-12-11T12:49:39;20.60;;;13.43;;
4577;SDS011;2301;47.354;8.528;2022-12-11T12:52:10;25.52;;;14.15;;
4577;SDS011;2301;47.354;8.528;2022-12-11T12:54:42;21.50;;;14.45;;
4577;SDS011;2301;47.354;8.528;2022-12-11T12:57:32;22.15;;;14.25;;
4577;SDS011;2301;47.354;8.528;2022-12-11T13:00:02;17.30;;;12.27;;
4577;SDS011;2301;47.354;8.528;2022-12-11T13:02:32;19.55;;;13.50;;
4577;SDS011;2301;47.354;8.528;2022-12-11T13:05:03;25.63;;;14.50;;
4577;SDS011;2301;47.354;8.528;2022-12-11T13:07:47;19.15;;;12.48;;
4577;SDS011;2301;47.354;8.528;2022-12-11T13:10:25;17.70;;;11.50;;
4577;SDS011;2301;47.354;8.528;2022-12-11T13:12:56;21.50;;;14.05;;
4577;SDS011;2301;47.354;8.528;2022-12-11T13:15:29;17.80;;;11.75;;
4577;SDS011;2301;47.354;8.528;2022-12-11T13:18:02;20.23;;;13.45;;
4577;SDS011;2301;47.354;8.528;2022-12-11T13:21:02;22.50;;;14.52;;
4577;SDS011;2301;47.354;8.528;2022-12-11T13:23:49;22.77;;;13.88;;
4577;SDS011;2301;47.354;8.528;2022-12-11T13:26:28;20.65;;;13.73;;
4577;SDS011;2301;47.354;8.528;2022-12-11T13:28:56;21.30;;;14.18;;
4577;SDS011;2301;47.354;8.528;2022-12-11T13:31:33;21.85;;;13.60;;
4577;SDS011;2301;47.354;8.528;2022-12-11T13:34:06;18.48;;;12.82;;
4577;SDS011;2301;47.354;8.528;2022-12-11T13:36:46;19.15;;;12.70;;
4577;SDS011;2301;47.354;8.528;2022-12-11T13:39:16;20.95;;;13.50;;
4577;SDS011;2301;47.354;8.528;2022-12-11T13:41:46;17.98;;;12.85;;
4577;SDS011;2301;47.354;8.528;2022-12-11T13:44:19;20.20;;;13.85;;
4577;SDS011;2301;47.354;8.528;2022-12-11T13:46:49;22.17;;;13.75;;
4577;SDS011;2301;47.354;8.528;2022-12-11T13:49:20;25.92;;;15.63;;
4577;SDS011;2301;47.354;8.528;2022-12-11T13:51:55;17.55;;;12.63;;
4577;SDS011;2301;47.354;8.528;2022-12-11T13:54:27;19.55;;;13.73;;
4577;SDS011;2301;47.354;8.528;2022-12-11T13:57:01;22.40;;;13.80;;
4577;SDS011;2301;47.354;8.528;2022-12-11T13:59:40;22.42;;;14.20;;
4577;SDS011;2301;47.354;8.528;2022-12-11T14:02:10;19.80;;;13.57;;
4577;SDS011;2301;47.354;8.528;2022-12-11T14:04:40;20.77;;;14.30;;
4577;SDS011;2301;47.354;8.528;2022-12-11T14:07:10;19.83;;;12.50;;
4577;SDS011;2301;47.354;8.528;2022-12-11T14:09:38;26.67;;;14.57;;
4577;SDS011;2301;47.354;8.528;2022-12-11T14:12:14;21.42;;;13.73;;
4577;SDS011;2301;47.354;8.528;2022-12-11T14:14:43;21.65;;;13.43;;
4577;SDS011;2301;47.354;8.528;2022-12-11T14:17:12;20.00;;;14.00;;
4577;SDS011;2301;47.354;8.528;2022-12-11T14:19:43;21.17;;;14.43;;
4577;SDS011;2301;47.354;8.528;2022-12-11T14:22:15;21.05;;;13.60;;
4577;SDS011;2301;47.354;8.528;2022-12-11T14:24:48;21.88;;;14.30;;
4577;SDS011;2301;47.354;8.528;2022-12-11T14:27:17;21.90;;;14.02;;
4577;SDS011;2301;47.354;8.528;2022-12-11T14:29:45;21.60;;;13.55;;
4577;SDS011;2301;47.354;8.528;2022-12-11T14:32:16;21.80;;;13.68;;
4577;SDS011;2301;47.354;8.528;2022-12-11T14:34:46;21.83;;;13.75;;
4577;SDS011;2301;47.354;8.528;2022-12-11T14:37:16;19.25;;;13.30;;
4577;SDS011;2301;47.354;8.528;2022-12-11T14:39:53;20.90;;;13.90;;
4577;SDS011;2301;47.354;8.528;2022-12-11T14:42:25;20.75;;;13.32;;
4577;SDS011;2301;47.354;8.528;2022-12-11T14:44:55;23.83;;;14.65;;
4577;SDS011;2301;47.354;8.528;2022-12-11T14:47:26;22.05;;;13.40;;
4577;SDS011;2301;47.354;8.528;2022-12-11T14:49:56;20.10;;;13.57;;
4577;SDS011;2301;47.354;8.528;2022-12-11T14:52:29;25.40;;;13.75;;
4577;SDS011;2301;47.354;8.528;2022-12-11T14:55:05;24.20;;;14.75;;
4577;SDS011;2301;47.354;8.528;2022-12-11T14:57:36;24.15;;;14.68;;
4577;SDS011;2301;47.354;8.528;2022-12-11T15:00:18;22.17;;;14.63;;
4577;SDS011;2301;47.354;8.528;2022-12-11T15:02:57;22.17;;;13.88;;
4577;SDS011;2301;47.354;8.528;2022-12-11T15:05:47;20.25;;;13.80;;
4577;SDS011;2301;47.354;8.528;2022-12-11T15:08:19;21.52;;;12.57;;
4577;SDS011;2301;47.354;8.528;2022-12-11T15:11:00;22.25;;;14.75;;
4577;SDS011;2301;47.354;8.528;2022-12-11T15:16:36;22.65;;;13.15;;
4577;SDS011;2301;47.354;8.528;2022-12-11T15:19:05;23.65;;;14.43;;
4577;SDS011;2301;47.354;8.528;2022-12-11T15:21:35;21.55;;;14.40;;
4577;SDS011;2301;47.354;8.528;2022-12-11T15:24:27;25.83;;;14.73;;
4577;SDS011;2301;47.354;8.528;2022-12-11T15:41:13;21.98;;;12.68;;
4577;SDS011;2301;47.354;8.528;2022-12-11T15:44:16;24.30;;;14.20;;
4577;SDS011;2301;47.354;8.528;2022-12-11T15:47:35;22.30;;;14.00;;
4577;SDS011;2301;47.354;8.528;2022-12-11T16:00:28;23.50;;;13.73;;
4577;SDS011;2301;47.354;8.528;2022-12-11T16:03:45;23.45;;;14.10;;
4577;SDS011;2301;47.354;8.528;2022-12-11T16:06:36;20.80;;;13.13;;
4577;SDS011;2301;47.354;8.528;2022-12-11T16:09:47;19.95;;;13.40;;
4577;SDS011;2301;47.354;8.528;2022-12-11T16:19:23;25.75;;;14.95;;
4577;SDS011;2301;47.354;8.528;2022-12-11T16:22:19;23.50;;;13.90;;
4577;SDS011;2301;47.354;8.528;2022-12-11T16:29:09;26.05;;;14.35;;
4577;SDS011;2301;47.354;8.528;2022-12-11T16:32:27;28.55;;;16.23;;
4577;SDS011;2301;47.354;8.528;2022-12-11T16:35:24;26.45;;;16.25;;
4577;SDS011;2301;47.354;8.528;2022-12-11T16:38:22;27.02;;;16.63;;
4577;SDS011;2301;47.354;8.528;2022-12-11T16:41:12;25.23;;;15.35;;
4577;SDS011;2301;47.354;8.528;2022-12-11T16:44:17;26.08;;;16.17;;
4577;SDS011;2301;47.354;8.528;2022-12-11T16:46:58;24.48;;;14.95;;
4577;SDS011;2301;47.354;8.528;2022-12-11T16:49:32;27.92;;;15.50;;
4577;SDS011;2301;47.354;8.528;2022-12-11T16:52:01;28.92;;;15.45;;
4577;SDS011;2301;47.354;8.528;2022-12-11T16:54:58;22.60;;;14.20;;
4577;SDS011;2301;47.354;8.528;2022-12-11T16:57:38;25.23;;;14.77;;
4577;SDS011;2301;47.354;8.528;2022-12-11T17:01:02;22.63;;;14.35;;
4577;SDS011;2301;47.354;8.528;2022-12-11T17:06:31;27.52;;;16.35;;
4577;SDS011;2301;47.354;8.528;2022-12-11T17:16:16;22.40;;;14.38;;
4577;SDS011;2301;47.354;8.528;2022-12-11T17:19:39;26.52;;;16.17;;
4577;SDS011;2301;47.354;8.528;2022-12-11T17:25:53;25.27;;;16.50;;
4577;SDS011;2301;47.354;8.528;2022-12-11T17:32:04;25.25;;;16.33;;
4577;SDS011;2301;47.354;8.528;2022-12-11T17:34:51;25.15;;;15.23;;
4577;SDS011;2301;47.354;8.528;2022-12-11T17:40:12;28.60;;;16.73;;
4577;SDS011;2301;47.354;8.528;2022-12-11T17:42:39;30.42;;;17.92;;
4577;SDS011;2301;47.354;8.528;2022-12-11T17:45:16;28.98;;;16.80;;
4577;SDS011;2301;47.354;8.528;2022-12-11T17:47:52;28.50;;;17.05;;
4577;SDS011;2301;47.354;8.528;2022-12-11T17:54:01;31.40;;;16.73;;
4577;SDS011;2301;47.354;8.528;2022-12-11T17:56:59;27.73;;;16.70;;
4577;SDS011;2301;47.354;8.528;2022-12-11T17:59:53;31.15;;;16.95;;
4577;SDS011;2301;47.354;8.528;2022-12-11T18:02:49;34.60;;;19.40;;
4577;SDS011;2301;47.354;8.528;2022-12-11T18:05:44;27.75;;;16.88;;
4577;SDS011;2301;47.354;8.528;2022-12-11T18:08:35;29.50;;;17.70;;
4577;SDS011;2301;47.354;8.528;2022-12-11T18:11:03;26.08;;;16.67;;
4577;SDS011;2301;47.354;8.528;2022-12-11T18:13:31;35.35;;;19.13;;
4577;SDS011;2301;47.354;8.528;2022-12-11T18:16:02;34.15;;;18.40;;
4577;SDS011;2301;47.354;8.528;2022-12-11T18:18:42;32.22;;;18.20;;
4577;SDS011;2301;47.354;8.528;2022-12-11T18:21:13;34.38;;;18.60;;
4577;SDS011;2301;47.354;8.528;2022-12-11T18:23:41;31.35;;;17.92;;
4577;SDS011;2301;47.354;8.528;2022-12-11T18:26:14;34.63;;;20.20;;
4577;SDS011;2301;47.354;8.528;2022-12-11T18:28:42;29.23;;;18.25;;
4577;SDS011;2301;47.354;8.528;2022-12-11T18:31:09;29.05;;;18.30;;
4577;SDS011;2301;47.354;8.528;2022-12-11T18:36:30;31.88;;;18.77;;
4577;SDS011;2301;47.354;8.528;2022-12-11T18:39:04;31.83;;;18.85;;
4577;SDS011;2301;47.354;8.528;2022-12-11T18:44:28;31.08;;;18.02;;
4577;SDS011;2301;47.354;8.528;2022-12-11T18:46:55;31.23;;;18.35;;
4577;SDS011;2301;47.354;8.528;2022-12-11T18:49:28;28.45;;;17.05;;
4577;SDS011;2301;47.354;8.528;2022-12-11T18:51:59;33.45;;;18.45;;
4577;SDS011;2301;47.354;8.528;2022-12-11T18:54:28;31.73;;;18.05;;
4577;SDS011;2301;47.354;8.528;2022-12-11T18:56:55;34.13;;;18.55;;
4577;SDS011;2301;47.354;8.528;2022-12-11T18:59:22;33.33;;;18.00;;
4577;SDS011;2301;47.354;8.528;2022-12-11T19:01:50;30.95;;;17.77;;
4577;SDS011;2301;47.354;8.528;2022-12-11T19:04:19;26.65;;;16.80;;
4577;SDS011;2301;47.354;8.528;2022-12-11T19:06:48;30.48;;;18.52;;
4577;SDS011;2301;47.354;8.528;2022-12-11T19:09:15;31.05;;;18.77;;
4577;SDS011;2301;47.354;8.528;2022-12-11T19:11:49;30.63;;;19.15;;
4577;SDS011;2301;47.354;8.528;2022-12-11T19:14:20;30.40;;;18.55;;
4577;SDS011;2301;47.354;8.528;2022-12-11T19:16:53;30.30;;;17.63;;
4577;SDS011;2301;47.354;8.528;2022-12-11T19:19:23;33.65;;;20.27;;
4577;SDS011;2301;47.354;8.528;2022-12-11T19:21:54;33.22;;;18.52;;
4577;SDS011;2301;47.354;8.528;2022-12-11T19:24:23;31.70;;;18.83;;
4577;SDS011;2301;47.354;8.528;2022-12-11T19:26:58;33.35;;;17.80;;
4577;SDS011;2301;47.354;8.528;2022-12-11T19:29:26;36.30;;;19.67;;
4577;SDS011;2301;47.354;8.528;2022-12-11T19:31:57;35.42;;;19.98;;
4577;SDS011;2301;47.354;8.528;2022-12-11T19:34:26;34.00;;;18.90;;
4577;SDS011;2301;47.354;8.528;2022-12-11T19:36:55;33.30;;;18.08;;
4577;SDS011;2301;47.354;8.528;2022-12-11T19:39:22;32.75;;;19.52;;
4577;SDS011;2301;47.354;8.528;2022-12-11T19:41:49;32.70;;;20.20;;
4577;SDS011;2301;47.354;8.528;2022-12-11T19:44:18;33.70;;;18.75;;
4577;SDS011;2301;47.354;8.528;2022-12-11T19:46:45;32.63;;;18.38;;
4577;SDS011;2301;47.354;8.528;2022-12-11T19:49:14;35.90;;;20.42;;
4577;SDS011;2301;47.354;8.528;2022-12-11T19:51:43;33.50;;;19.83;;
4577;SDS011;2301;47.354;8.528;2022-12-11T19:54:12;37.95;;;20.00;;
4577;SDS011;2301;47.354;8.528;2022-12-11T19:56:40;31.52;;;19.83;;
4577;SDS011;2301;47.354;8.528;2022-12-11T19:59:12;33.65;;;19.67;;
4577;SDS011;2301;47.354;8.528;2022-12-11T20:01:43;37.60;;;21.42;;
4577;SDS011;2301;47.354;8.528;2022-12-11T20:04:13;60.38;;;28.05;;
4577;SDS011;2301;47.354;8.528;2022-12-11T20:06:50;57.97;;;26.90;;
4577;SDS011;2301;47.354;8.528;2022-12-11T20:09:19;57.78;;;24.95;;
4577;SDS011;2301;47.354;8.528;2022-12-11T20:11:55;66.65;;;27.33;;
4577;SDS011;2301;47.354;8.528;2022-12-11T20:14:22;86.53;;;31.92;;
4577;SDS011;2301;47.354;8.528;2022-12-11T20:16:59;118.28;;;37.83;;
4577;SDS011;2301;47.354;8.528;2022-12-11T20:19:26;80.78;;;30.65;;
4577;SDS011;2301;47.354;8.528;2022-12-11T20:21:59;63.88;;;25.63;;
4577;SDS011;2301;47.354;8.528;2022-12-11T20:24:43;57.85;;;23.40;;
4577;SDS011;2301;47.354;8.528;2022-12-11T20:30:09;67.18;;;26.80;;
4577;SDS011;2301;47.354;8.528;2022-12-11T20:32:37;55.80;;;24.77;;
4577;SDS011;2301;47.354;8.528;2022-12-11T20:35:26;54.03;;;23.95;;
4577;SDS011;2301;47.354;8.528;2022-12-11T20:37:53;52.60;;;23.95;;
4577;SDS011;2301;47.354;8.528;2022-12-11T20:40:22;51.38;;;23.00;;
4577;SDS011;2301;47.354;8.528;2022-12-11T20:45:38;52.60;;;22.50;;
4577;SDS011;2301;47.354;8.528;2022-12-11T20:48:15;56.28;;;24.48;;
4577;SDS011;2301;47.354;8.528;2022-12-11T20:50:44;57.70;;;25.88;;
4577;SDS011;2301;47.354;8.528;2022-12-11T20:53:35;54.47;;;24.85;;
4577;SDS011;2301;47.354;8.528;2022-12-11T20:56:26;43.72;;;23.27;;
4577;SDS011;2301;47.354;8.528;2022-12-11T20:58:55;53.40;;;25.20;;
4577;SDS011;2301;47.354;8.528;2022-12-11T21:01:29;58.80;;;27.25;;